createdAt,value
2022-09-04T00:00:34.360Z,65.50
2022-09-04T00:03:52.944Z,65.90
2022-09-04T00:06:30.537Z,66.30
2022-09-04T00:09:21.886Z,67.10
2022-09-04T00:12:09.119Z,67.40
2022-09-04T00:14:54.768Z,67.90
2022-09-04T00:17:42.369Z,67.80
2022-09-04T00:20:39.642Z,68.30
2022-09-04T00:23:40.881Z,68.80
2022-09-04T00:26:29.785Z,69.40
2022-09-04T00:29:06.980Z,68.40
2022-09-04T00:31:49.798Z,67.50
2022-09-04T00:34:46.396Z,66.90
2022-09-04T00:37:22.922Z,67.20
2022-09-04T00:40:05.584Z,67.10
2022-09-04T00:42:55.731Z,66.40
2022-09-04T00:45:56.736Z,66.10
2022-09-04T00:49:11.755Z,66.20
2022-09-04T00:52:36.265Z,66.80
2022-09-04T00:55:25.959Z,66.60
2022-09-04T00:58:13.099Z,66.20
2022-09-04T01:00:43.070Z,66.30
2022-09-04T01:03:27.575Z,66.00
2022-09-04T01:06:13.187Z,66.00
2022-09-04T01:09:17.243Z,66.50
2022-09-04T01:12:11.854Z,66.70
2022-09-04T01:15:03.964Z,66.70
2022-09-04T01:18:04.845Z,66.10
2022-09-04T01:21:01.493Z,66.40
2022-09-04T01:23:50.575Z,67.00
2022-09-04T01:26:51.969Z,67.80
2022-09-04T01:30:06.943Z,68.60
2022-09-04T01:33:11.266Z,69.80
2022-09-04T01:36:11.329Z,70.70
2022-09-04T01:38:53.629Z,70.80
2022-09-04T01:41:38.856Z,71.10
2022-09-04T01:44:12.593Z,71.60
2022-09-04T01:47:09.054Z,71.50
2022-09-04T01:49:57.758Z,71.10
2022-09-04T01:52:36.865Z,71.40
2022-09-04T01:55:24.705Z,71.10
2022-09-04T01:58:32.593Z,71.10
2022-09-04T02:01:39.615Z,71.20
2022-09-04T02:04:35.109Z,71.00
2022-09-04T02:07:35.910Z,70.90
2022-09-04T02:10:26.368Z,70.90
2022-09-04T02:13:08.722Z,70.90
2022-09-04T02:15:49.701Z,70.40
2022-09-04T02:18:33.559Z,70.70
2022-09-04T02:21:09.709Z,70.90
2022-09-04T02:24:16.010Z,71.10
2022-09-04T02:26:50.827Z,71.40
2022-09-04T02:29:45.448Z,71.40
2022-09-04T02:32:38.109Z,71.50
2022-09-04T02:35:17.258Z,71.70
2022-09-04T02:38:25.653Z,72.10
2022-09-04T02:41:24.349Z,72.20
2022-09-04T02:44:00.509Z,72.70
2022-09-04T02:46:49.940Z,72.70
2022-09-04T02:49:50.079Z,72.80
2022-09-04T02:52:49.708Z,73.00
2022-09-04T02:55:59.760Z,73.00
2022-09-04T02:59:12.313Z,73.30
2022-09-04T03:02:04.521Z,73.50
2022-09-04T03:05:02.353Z,73.20
2022-09-04T03:07:40.556Z,72.90
2022-09-04T03:10:29.477Z,72.90
2022-09-04T03:13:23.216Z,72.30
2022-09-04T03:16:19.867Z,71.50
2022-09-04T03:19:12.721Z,71.60
2022-09-04T03:22:19.964Z,71.90
2022-09-04T03:25:24.237Z,72.10
2022-09-04T03:27:51.985Z,71.70
2022-09-04T03:30:20.564Z,72.30
2022-09-04T03:32:49.375Z,72.80
2022-09-04T03:35:50.325Z,72.90
2022-09-04T03:38:29.738Z,73.30
2022-09-04T03:41:06.677Z,73.80
2022-09-04T03:44:05.115Z,74.30
2022-09-04T03:46:43.049Z,74.30
2022-09-04T03:49:35.036Z,73.70
2022-09-04T03:52:28.632Z,73.10
2022-09-04T03:55:08.274Z,73.50
2022-09-04T03:58:18.584Z,74.20
2022-09-04T04:01:15.127Z,74.90
2022-09-04T04:04:16.665Z,75.00
2022-09-04T04:07:01.733Z,75.10
2022-09-04T04:10:09.332Z,75.50
2022-09-04T04:13:01.197Z,75.70
2022-09-04T04:15:54.818Z,76.20
2022-09-04T04:18:56.391Z,76.60
2022-09-04T04:21:56.129Z,76.60
2022-09-04T04:24:55.781Z,76.70
2022-09-04T04:27:41.973Z,76.80
2022-09-04T04:30:14.810Z,75.80
2022-09-04T04:33:24.881Z,75.30
2022-09-04T04:36:20.022Z,75.00
2022-09-04T04:39:12.009Z,75.10
2022-09-04T04:42:04.411Z,75.50
2022-09-04T04:44:58.771Z,75.70
2022-09-04T04:47:51.002Z,75.20
2022-09-04T04:50:42.328Z,75.00
2022-09-04T04:53:32.223Z,74.90
2022-09-04T04:56:25.174Z,75.10
2022-09-04T04:59:21.507Z,75.50
2022-09-04T05:01:59.388Z,75.30
2022-09-04T05:04:43.111Z,74.60
2022-09-04T05:07:38.847Z,74.70
2022-09-04T05:10:45.047Z,74.70
2022-09-04T05:13:24.691Z,75.10
2022-09-04T05:16:52.207Z,74.90
2022-09-04T05:19:30.057Z,74.90
2022-09-04T05:22:38.030Z,75.10
2022-09-04T05:25:14.934Z,75.30
2022-09-04T05:28:28.761Z,75.30
2022-09-04T05:31:17.129Z,75.30
2022-09-04T05:34:21.995Z,75.50
2022-09-04T05:37:26.609Z,75.10
2022-09-04T05:40:11.298Z,74.90
2022-09-04T05:43:44.862Z,75.40
2022-09-04T05:46:42.932Z,75.30
2022-09-04T05:49:33.382Z,74.50
2022-09-04T05:52:47.544Z,74.70
2022-09-04T05:55:58.908Z,74.50
2022-09-04T05:58:46.533Z,74.90
2022-09-04T06:01:39.884Z,75.40
2022-09-04T06:04:41.669Z,75.80
2022-09-04T06:07:27.970Z,75.60
2022-09-04T06:10:57.098Z,75.70
2022-09-04T06:13:33.248Z,75.50
2022-09-04T06:16:37.167Z,75.10
2022-09-04T06:19:19.146Z,75.20
2022-09-04T06:22:14.723Z,74.30
2022-09-04T06:25:11.924Z,74.90
2022-09-04T06:28:16.018Z,73.80
2022-09-04T06:31:21.420Z,73.10
2022-09-04T06:34:29.867Z,72.10
2022-09-04T06:37:22.847Z,71.00
2022-09-04T06:40:35.307Z,70.30
2022-09-04T06:43:41.815Z,69.40
2022-09-04T06:46:46.003Z,70.20
2022-09-04T06:49:50.821Z,69.60
2022-09-04T06:52:34.371Z,68.90
2022-09-04T06:55:39.881Z,67.20
2022-09-04T06:58:46.180Z,67.20
2022-09-04T07:01:54.637Z,66.40
2022-09-04T07:05:00.607Z,65.60
2022-09-04T07:07:58.884Z,64.70
2022-09-04T07:10:34.030Z,64.20
2022-09-04T07:13:17.751Z,63.40
2022-09-04T07:16:06.520Z,62.40
2022-09-04T07:19:01.877Z,62.30
2022-09-04T07:22:21.051Z,62.20
2022-09-04T07:25:12.551Z,61.80
2022-09-04T07:28:16.336Z,61.00
2022-09-04T07:31:07.670Z,60.50
2022-09-04T07:33:53.500Z,60.90
2022-09-04T07:36:51.252Z,59.70
2022-09-04T07:39:47.149Z,58.90
2022-09-04T07:43:08.863Z,58.30
2022-09-04T07:45:51.850Z,58.50
2022-09-04T07:48:44.755Z,58.00
2022-09-04T07:51:22.136Z,57.70
2022-09-04T07:54:24.784Z,57.40
2022-09-04T07:57:26.214Z,57.30
2022-09-04T08:00:05.744Z,57.80
2022-09-04T08:03:01.566Z,56.60
2022-09-04T08:05:37.242Z,57.00
2022-09-04T08:08:53.538Z,56.30
2022-09-04T08:11:45.960Z,56.60
2022-09-04T08:14:39.690Z,55.30
2022-09-04T08:17:49.984Z,55.70
2022-09-04T08:20:45.892Z,54.90
2022-09-04T08:23:26.763Z,54.30
2022-09-04T08:26:55.418Z,54.40
2022-09-04T08:30:04.798Z,53.40
2022-09-04T08:33:00.020Z,52.30
2022-09-04T08:35:34.488Z,52.10
2022-09-04T08:38:29.915Z,50.40
2022-09-04T08:41:45.466Z,49.40
2022-09-04T08:44:44.411Z,50.00
2022-09-04T08:47:23.664Z,50.00
2022-09-04T08:50:20.520Z,50.20
2022-09-04T08:53:19.863Z,49.80
2022-09-04T08:56:19.083Z,48.90
2022-09-04T08:59:37.843Z,46.70
2022-09-04T09:02:43.457Z,46.70
2022-09-04T09:05:55.936Z,46.00
2022-09-04T09:08:57.370Z,45.70
2022-09-04T09:12:17.700Z,46.10
2022-09-04T09:15:25.323Z,45.10
2022-09-04T09:18:32.717Z,43.70
2022-09-04T09:21:10.803Z,44.20
2022-09-04T09:24:21.654Z,42.70
2022-09-04T09:27:23.192Z,42.70
2022-09-04T09:30:08.203Z,42.30
2022-09-04T09:33:08.548Z,41.70
2022-09-04T09:36:04.856Z,41.30
2022-09-04T09:39:29.460Z,42.20
2022-09-04T09:42:35.918Z,41.20
2022-09-04T09:45:50.894Z,41.80
2022-09-04T09:48:45.054Z,42.50
2022-09-04T09:51:39.787Z,41.10
2022-09-04T09:54:39.010Z,39.60
2022-09-04T09:58:02.480Z,41.00
2022-09-04T10:01:15.247Z,38.40
2022-09-04T10:04:40.581Z,37.30
2022-09-04T10:07:42.277Z,36.90
2022-09-04T10:10:36.658Z,35.70
2022-09-04T10:13:25.662Z,36.30
2022-09-04T10:16:20.025Z,36.50
2022-09-04T12:05:57.583Z,28.80
2022-09-04T12:09:29.433Z,29.10
2022-09-04T12:12:15.233Z,28.70
2022-09-04T12:14:57.570Z,27.00
2022-09-04T12:17:56.952Z,29.20
2022-09-04T12:21:21.085Z,27.60
2022-09-04T12:24:32.096Z,26.70
2022-09-04T12:27:22.127Z,27.00
2022-09-04T12:30:25.691Z,26.30
2022-09-04T12:34:01.986Z,26.80
2022-09-04T12:37:13.751Z,26.70
2022-09-04T12:40:13.034Z,26.60
2022-09-04T12:43:08.809Z,26.70
2022-09-04T12:45:56.375Z,27.20
2022-09-04T12:48:43.406Z,26.60
2022-09-04T12:51:21.767Z,25.70
2022-09-04T12:54:53.153Z,25.50
2022-09-04T12:58:07.322Z,25.70
2022-09-04T13:00:56.282Z,26.50
2022-09-04T13:03:40.553Z,25.80
2022-09-04T13:06:33.253Z,25.50
2022-09-04T13:09:33.825Z,25.80
2022-09-04T13:12:20.723Z,25.90
2022-09-04T13:15:04.837Z,26.10
2022-09-04T13:18:07.859Z,25.80
2022-09-04T13:21:05.980Z,24.60
2022-09-04T13:24:13.589Z,25.40
2022-09-04T13:27:10.696Z,24.70
2022-09-04T13:30:03.959Z,25.10
2022-09-04T13:35:36.950Z,25.20
2022-09-04T13:38:39.574Z,25.20
2022-09-04T13:41:50.894Z,25.30
2022-09-04T13:45:09.543Z,25.00
2022-09-04T13:48:04.354Z,26.20
2022-09-04T13:50:47.085Z,26.40
2022-09-04T13:53:19.429Z,26.20
2022-09-04T13:55:54.590Z,25.70
2022-09-04T14:01:02.325Z,25.30
2022-09-04T14:03:50.317Z,25.50
2022-09-04T14:06:21.710Z,26.10
2022-09-04T14:09:04.176Z,25.50
2022-09-04T14:12:06.728Z,25.10
2022-09-04T14:15:21.389Z,24.80
2022-09-04T14:18:29.835Z,24.90
2022-09-04T14:21:05.663Z,24.90
2022-09-04T14:24:01.103Z,26.00
2022-09-04T14:26:59.509Z,25.70
2022-09-04T14:30:02.924Z,26.00
2022-09-04T14:32:48.072Z,25.80
2022-09-04T14:35:53.297Z,26.40
2022-09-04T14:38:54.409Z,26.70
2022-09-04T14:41:36.605Z,26.80
2022-09-04T14:44:25.525Z,27.30
2022-09-04T14:47:37.410Z,27.80
2022-09-04T14:50:10.521Z,28.20
2022-09-04T14:52:49.282Z,28.90
2022-09-04T14:55:29.151Z,29.40
2022-09-04T14:58:39.716Z,29.00
2022-09-04T15:01:21.594Z,29.30
2022-09-04T15:04:15.235Z,29.40
2022-09-04T15:07:12.984Z,30.00
2022-09-04T15:09:46.380Z,29.90
2022-09-04T15:12:27.363Z,30.30
2022-09-04T15:15:23.337Z,30.30
2022-09-04T15:18:08.731Z,30.50
2022-09-04T15:20:49.485Z,30.90
2022-09-04T15:23:32.151Z,30.70
2022-09-04T15:26:10.052Z,32.10
2022-09-04T15:28:50.054Z,32.30
2022-09-04T15:31:42.249Z,32.70
2022-09-04T15:34:20.943Z,32.60
2022-09-04T15:36:50.173Z,33.10
2022-09-04T15:40:12.365Z,32.60
2022-09-04T15:42:56.016Z,33.30
2022-09-04T15:45:44.318Z,33.00
2022-09-04T15:49:24.373Z,33.40
2022-09-04T15:52:32.827Z,33.40
2022-09-04T15:55:28.046Z,33.70
2022-09-04T15:58:19.993Z,34.50
2022-09-04T16:01:17.448Z,33.90
2022-09-04T16:04:35.876Z,34.40
2022-09-04T16:07:40.558Z,34.20
2022-09-04T16:10:25.930Z,34.30
2022-09-04T16:15:49.249Z,35.00
2022-09-04T16:18:38.352Z,35.60
2022-09-04T16:21:32.535Z,36.00
2022-09-04T16:24:19.224Z,36.10
2022-09-04T16:26:51.304Z,36.50
2022-09-04T16:29:37.578Z,36.90
2022-09-04T16:32:10.103Z,36.30
2022-09-04T16:34:50.366Z,36.60
2022-09-04T16:37:22.940Z,37.10
2022-09-04T16:40:18.690Z,36.50
2022-09-04T16:43:28.190Z,37.30
2022-09-04T16:46:30.034Z,37.40
2022-09-04T16:49:28.872Z,37.60
2022-09-04T16:52:27.080Z,37.50
2022-09-04T16:55:25.527Z,37.30
2022-09-04T16:58:11.774Z,37.20
2022-09-04T17:01:29.133Z,37.30
2022-09-04T17:04:28.156Z,38.10
2022-09-04T17:07:09.439Z,37.50
2022-09-04T17:10:10.147Z,37.70
2022-09-04T17:13:00.828Z,38.80
2022-09-04T17:15:52.619Z,38.50
2022-09-04T17:18:29.132Z,38.60
2022-09-04T17:22:18.845Z,38.70
2022-09-04T17:28:59.270Z,39.20
2022-09-04T17:29:19.375Z,39.50
2022-09-04T17:29:55.288Z,40.00
2022-09-04T17:35:52.607Z,40.30
2022-09-04T17:40:33.548Z,40.30
2022-09-04T17:40:39.026Z,41.30
2022-09-04T17:42:08.258Z,41.80
2022-09-04T17:45:11.608Z,42.20
2022-09-04T17:47:44.294Z,42.60
2022-09-04T17:50:25.570Z,43.20
2022-09-04T17:53:04.070Z,43.60
2022-09-04T17:55:39.052Z,43.80
2022-09-04T17:59:07.825Z,44.00
2022-09-04T18:01:59.316Z,44.60
2022-09-04T18:04:47.430Z,44.80
2022-09-04T18:08:07.781Z,45.50
2022-09-04T18:10:59.087Z,45.80
2022-09-04T18:14:02.389Z,46.00
2022-09-04T18:16:35.901Z,46.80
2022-09-04T18:19:47.911Z,47.10
2022-09-04T18:22:45.057Z,47.30
2022-09-04T18:25:36.062Z,47.90
2022-09-04T18:28:16.457Z,48.30
2022-09-04T18:37:06.913Z,48.50
2022-09-04T18:37:26.906Z,48.10
2022-09-04T18:37:45.723Z,48.20
2022-09-04T18:40:50.379Z,48.60
2022-09-04T18:50:24.013Z,48.90
2022-09-04T18:50:37.888Z,50.10
2022-09-04T18:50:51.994Z,49.70
2022-09-04T18:51:58.906Z,50.80
2022-09-04T18:54:45.569Z,50.90
2022-09-04T18:57:55.861Z,51.20
2022-09-04T19:00:32.122Z,51.10
2022-09-04T19:03:23.738Z,51.20
2022-09-04T19:05:58.109Z,51.20
2022-09-04T19:16:51.627Z,67.00
2022-09-04T19:19:32.024Z,65.00
2022-09-04T19:22:37.022Z,63.00
2022-09-04T19:25:20.913Z,62.10
2022-09-04T19:28:10.726Z,61.50
2022-09-04T19:31:05.997Z,61.00
2022-09-04T19:33:44.927Z,60.40
2022-09-04T19:36:32.545Z,60.20
2022-09-04T19:45:53.655Z,60.40
2022-09-04T19:46:05.764Z,60.30
2022-09-04T19:46:13.318Z,60.20
2022-09-04T19:50:12.952Z,60.10
2022-09-04T20:30:22.364Z,54.10
2022-09-04T20:33:12.231Z,54.90
2022-09-04T20:35:49.301Z,55.00
2022-09-04T20:38:50.990Z,55.00
2022-09-04T20:41:42.590Z,54.80
2022-09-04T20:44:34.366Z,55.30
2022-09-04T20:52:53.305Z,55.40
2022-09-04T20:53:04.839Z,55.40
2022-09-04T20:54:49.172Z,55.60
2022-09-04T21:01:05.501Z,55.40
2022-09-04T21:03:22.695Z,55.50
2022-09-04T21:03:40.416Z,55.60
2022-09-04T21:07:10.628Z,55.70
2022-09-04T21:10:31.467Z,55.80
2022-09-04T21:13:13.964Z,56.00
2022-09-04T21:15:56.981Z,56.10
2022-09-04T21:18:48.619Z,56.10
2022-09-04T21:22:17.200Z,56.40
2022-09-04T21:25:40.525Z,56.50
2022-09-04T21:28:58.634Z,56.90
2022-09-04T21:32:05.513Z,57.10
2022-09-04T21:35:40.356Z,57.50
2022-09-04T21:38:46.073Z,57.90
2022-09-04T21:41:37.056Z,57.80
2022-09-04T21:44:43.520Z,57.60
2022-09-04T21:48:00.383Z,58.00
2022-09-04T21:50:34.894Z,58.00
2022-09-04T21:53:40.865Z,58.50
2022-09-04T22:02:27.765Z,58.50
2022-09-04T22:02:42.823Z,58.50
2022-09-04T22:03:30.711Z,58.50
2022-09-04T22:06:45.986Z,58.50
2022-09-04T22:13:33.245Z,58.50
2022-09-04T22:13:40.856Z,58.70
2022-09-04T22:17:00.193Z,58.90
2022-09-04T22:19:56.407Z,59.00
2022-09-04T22:23:11.209Z,59.20
2022-09-04T22:26:23.583Z,59.20
2022-09-04T22:29:39.321Z,59.20
2022-09-04T22:32:45.136Z,58.90
2022-09-04T22:35:58.958Z,59.20
2022-09-04T22:38:53.902Z,59.40
2022-09-04T22:41:45.473Z,59.30
2022-09-04T22:44:42.390Z,59.80
2022-09-04T22:47:38.950Z,59.40
2022-09-04T22:50:51.006Z,60.00
2022-09-04T22:53:34.726Z,60.00
2022-09-04T22:56:23.933Z,60.20
2022-09-04T22:59:26.586Z,60.70
2022-09-04T23:03:04.231Z,60.40
2022-09-04T23:06:11.328Z,60.70
2022-09-04T23:13:49.525Z,61.00
2022-09-04T23:13:57.503Z,61.20
2022-09-04T23:16:01.930Z,61.10
2022-09-04T23:23:35.023Z,61.30
2022-09-04T23:26:48.658Z,61.70
2022-09-04T23:26:50.716Z,61.70
2022-09-04T23:29:13.167Z,62.20
2022-09-04T23:32:16.649Z,62.30
2022-09-04T23:35:15.140Z,62.20
2022-09-04T23:38:17.041Z,62.50
2022-09-04T23:40:47.953Z,62.90
2022-09-04T23:43:26.517Z,63.00
2022-09-04T23:46:18.697Z,62.90
2022-09-04T23:49:11.906Z,63.20
2022-09-04T23:51:52.189Z,63.20
2022-09-04T23:54:43.840Z,63.00
2022-09-04T23:57:26.708Z,62.90
